Time;durP1;ratioP1;P1;durP2;ratioP2;P2;SDS_P1;SDS_P2;PMS_P1;PMS_P2;Temp;Humidity;BMP_temperature;BMP_pressure;BME280_temperature;BME280_humidity;BME280_pressure;Samples;Min_cycle;Max_cycle;Signal;HPM_P1;HPM_P2
2022/05/27 00:01:08;;;;;;;2.28;0.82;;;15.30;88.10;;;;;;5093854;28;20017;-84
2022/05/27 00:03:34;;;;;;;4.32;1.30;;;15.30;88.10;;;;;;5076514;28;20096;-85
2022/05/27 00:05:59;;;;;;;2.30;1.20;;;15.30;88.30;;;;;;5075263;28;20096;-86
2022/05/27 00:08:25;;;;;;;1.30;0.82;;;15.30;88.40;;;;;;5080376;28;20245;-85
2022/05/27 00:10:52;;;;;;;3.47;1.27;;;15.20;88.50;;;;;;5074229;28;20025;-86
2022/05/27 00:13:17;;;;;;;3.13;1.02;;;15.20;88.70;;;;;;5068194;28;20039;-85
2022/05/27 00:15:43;;;;;;;3.08;1.20;;;15.20;88.80;;;;;;5065195;28;20017;-86
2022/05/27 00:18:08;;;;;;;2.53;1.10;;;15.20;88.90;;;;;;5071591;28;20024;-85
2022/05/27 00:20:35;;;;;;;2.35;1.15;;;15.10;89.10;;;;;;5079616;28;20051;-83
2022/05/27 00:23:01;;;;;;;4.10;1.10;;;15.10;89.30;;;;;;5074307;28;20092;-86
2022/05/27 00:25:28;;;;;;;4.43;1.10;;;15.10;89.50;;;;;;5082367;28;20044;-84
2022/05/27 00:27:53;;;;;;;1.80;1.27;;;15.00;89.60;;;;;;5075106;28;20044;-86
2022/05/27 00:30:19;;;;;;;3.33;1.10;;;15.10;89.80;;;;;;5080461;28;20021;-85
2022/05/27 00:32:45;;;;;;;3.58;1.27;;;15.00;89.90;;;;;;5070144;28;20040;-85
2022/05/27 00:35:11;;;;;;;2.03;1.05;;;15.00;90.00;;;;;;5078281;28;20099;-86
2022/05/27 00:37:37;;;;;;;2.88;1.20;;;15.00;90.10;;;;;;5073489;28;20016;-86
2022/05/27 00:40:04;;;;;;;1.45;1.13;;;15.00;90.10;;;;;;5074931;28;20031;-86
2022/05/27 00:42:30;;;;;;;2.40;1.40;;;15.00;90.20;;;;;;5095316;28;20025;-86
2022/05/27 00:44:55;;;;;;;3.22;1.02;;;15.00;90.30;;;;;;5076110;28;20084;-86
2022/05/27 00:47:32;;;;;;;3.90;1.30;;;15.00;90.30;;;;;;5092018;28;20118;-85
2022/05/27 00:50:03;;;;;;;1.38;1.20;;;15.00;90.40;;;;;;5086865;28;20035;-85
2022/05/27 00:52:31;;;;;;;2.08;1.30;;;15.00;90.50;;;;;;5087274;28;20099;-86
2022/05/27 00:54:59;;;;;;;4.95;1.20;;;15.00;90.50;;;;;;5075537;28;20021;-86
2022/05/27 00:57:33;;;;;;;2.20;1.27;;;15.10;90.60;;;;;;5060763;28;20032;-85
2022/05/27 01:00:04;;;;;;;2.90;1.27;;;15.10;90.70;;;;;;5066246;28;20028;-86
2022/05/27 01:02:30;;;;;;;3.45;1.38;;;15.10;90.70;;;;;;5061444;28;20094;-86
2022/05/27 01:04:59;;;;;;;1.88;1.20;;;15.10;90.70;;;;;;5056714;28;20036;-85
2022/05/27 01:07:24;;;;;;;2.42;1.27;;;15.10;90.70;;;;;;5059987;28;20068;-85
2022/05/27 01:09:50;;;;;;;3.50;1.40;;;15.10;90.70;;;;;;5074885;28;20042;-86
2022/05/27 01:12:37;;;;;;;3.33;1.63;;;15.00;90.70;;;;;;5079628;28;20063;-87
2022/05/27 01:15:25;;;;;;;2.03;1.50;;;15.00;90.80;;;;;;5080292;28;20035;-86
2022/05/27 01:17:53;;;;;;;3.72;1.42;;;15.00;90.90;;;;;;5064230;28;20031;-86
2022/05/27 01:20:25;;;;;;;3.33;1.42;;;15.00;91.00;;;;;;5069709;28;20044;-86
2022/05/27 01:23:06;;;;;;;1.60;1.30;;;14.90;91.00;;;;;;5077132;28;20090;-86
2022/05/27 01:25:56;;;;;;;2.17;0.97;;;15.00;91.10;;;;;;5080048;28;20028;-85
2022/05/27 01:28:37;;;;;;;2.22;1.50;;;14.90;91.10;;;;;;5064875;28;20040;-85
2022/05/27 01:31:27;;;;;;;3.70;1.45;;;14.90;91.20;;;;;;5085659;28;20032;-86
2022/05/27 01:34:30;;;;;;;1.38;1.20;;;14.80;91.30;;;;;;5076071;28;20079;-86
2022/05/27 01:37:05;;;;;;;2.72;1.30;;;14.80;91.30;;;;;;5081426;28;20036;-85
2022/05/27 01:39:33;;;;;;;2.38;1.10;;;14.70;91.40;;;;;;5080694;28;20025;-86
2022/05/27 01:42:14;;;;;;;3.72;1.30;;;14.70;91.70;;;;;;5074688;28;20037;-85
2022/05/27 01:44:46;;;;;;;1.23;1.05;;;14.70;91.70;;;;;;5070586;28;20021;-86
2022/05/27 01:47:28;;;;;;;2.53;1.20;;;14.70;91.80;;;;;;5065718;28;20028;-86
2022/05/27 01:50:18;;;;;;;2.10;1.20;;;14.70;91.90;;;;;;5063392;28;20029;-86
2022/05/27 01:52:46;;;;;;;5.30;1.10;;;14.70;91.90;;;;;;5056351;28;20028;-86
2022/05/27 01:55:24;;;;;;;5.72;1.10;;;14.70;92.00;;;;;;5070057;28;20016;-85
2022/05/27 01:58:14;;;;;;;1.52;1.02;;;14.60;92.10;;;;;;5086114;28;20020;-86
2022/05/27 02:00:43;;;;;;;3.25;1.27;;;14.60;92.20;;;;;;5066358;28;20044;-86
2022/05/27 02:03:21;;;;;;;3.10;1.27;;;14.60;92.30;;;;;;5074008;28;20020;-86
2022/05/27 02:05:58;;;;;;;2.40;1.20;;;14.50;92.50;;;;;;5080260;28;20040;-86
2022/05/27 02:08:31;;;;;;;3.08;1.27;;;14.50;92.60;;;;;;5062511;28;20056;-86
2022/05/27 02:11:02;;;;;;;2.55;1.20;;;14.50;92.70;;;;;;5071168;28;20008;-86
2022/05/27 02:13:41;;;;;;;3.33;1.30;;;14.50;92.80;;;;;;5068099;28;20032;-85
2022/05/27 02:16:23;;;;;;;2.47;1.30;;;14.50;93.00;;;;;;5067259;28;20100;-85
2022/05/27 02:19:06;;;;;;;2.78;1.30;;;14.50;93.10;;;;;;5063051;28;20038;-85
2022/05/27 02:21:42;;;;;;;2.25;1.13;;;14.40;93.20;;;;;;5081682;28;20647;-86
2022/05/27 02:24:16;;;;;;;2.13;1.20;;;14.40;93.40;;;;;;5066576;28;20024;-85
2022/05/27 02:26:47;;;;;;;2.08;1.25;;;14.40;93.60;;;;;;5073854;28;20021;-86
2022/05/27 02:29:21;;;;;;;3.92;1.48;;;14.40;93.70;;;;;;5075092;28;20024;-86
2022/05/27 02:31:52;;;;;;;2.30;1.30;;;14.40;93.90;;;;;;5074066;28;20016;-85
2022/05/27 02:37:22;;;;;;;2.05;1.35;;;14.30;94.30;;;;;;5091377;28;20031;-86
2022/05/27 02:39:48;;;;;;;1.95;1.55;;;14.30;94.30;;;;;;5073063;28;20016;-86
2022/05/27 02:42:20;;;;;;;1.98;1.40;;;14.30;94.50;;;;;;5094204;28;20013;-85
2022/05/27 02:45:06;;;;;;;2.42;1.48;;;14.30;94.60;;;;;;5070975;28;20020;-85
2022/05/27 02:47:58;;;;;;;4.78;1.40;;;14.20;94.80;;;;;;5093479;28;20040;-85
2022/05/27 02:50:48;;;;;;;3.50;1.33;;;14.30;94.90;;;;;;5082939;28;20033;-85
2022/05/27 02:53:23;;;;;;;3.47;1.60;;;14.20;95.00;;;;;;5091459;28;20316;-85
2022/05/27 02:56:10;;;;;;;4.63;1.55;;;14.20;95.20;;;;;;5091180;28;20415;-85
2022/05/27 02:58:36;;;;;;;1.92;1.40;;;14.20;95.30;;;;;;5084607;28;20025;-86
2022/05/27 03:01:03;;;;;;;2.08;1.77;;;14.20;95.40;;;;;;5086506;28;20025;-86
2022/05/27 03:03:29;;;;;;;1.45;1.35;;;14.20;95.60;;;;;;5086513;28;20024;-86
2022/05/27 03:06:12;;;;;;;4.10;1.67;;;14.20;95.80;;;;;;5093930;28;20024;-86
2022/05/27 03:08:59;;;;;;;2.70;1.48;;;14.10;96.00;;;;;;5092134;28;20090;-85
2022/05/27 03:11:45;;;;;;;3.13;1.80;;;14.10;96.20;;;;;;5093306;28;20040;-86
2022/05/27 03:14:32;;;;;;;3.63;1.60;;;14.10;96.30;;;;;;5079787;28;20052;-85
2022/05/27 03:17:16;;;;;;;2.33;1.60;;;14.10;96.40;;;;;;5096500;28;20001;-85
2022/05/27 03:19:49;;;;;;;4.00;1.65;;;14.10;96.50;;;;;;5083084;28;20115;-86
2022/05/27 03:22:36;;;;;;;2.85;1.60;;;14.10;96.70;;;;;;5083821;28;20028;-84
2022/05/27 03:25:10;;;;;;;3.50;1.58;;;14.00;96.80;;;;;;5086184;28;20135;-86
2022/05/27 03:27:44;;;;;;;3.10;1.50;;;14.10;96.90;;;;;;5097349;28;20539;-86
2022/05/27 03:30:22;;;;;;;2.67;1.70;;;14.10;97.10;;;;;;5077989;28;20089;-86
2022/05/27 03:33:22;;;;;;;3.75;1.65;;;14.00;97.20;;;;;;5081654;28;20046;-88
2022/05/27 03:35:52;;;;;;;3.78;1.80;;;14.00;97.30;;;;;;5088670;28;20017;-85
2022/05/27 03:38:38;;;;;;;3.33;1.80;;;14.00;97.30;;;;;;5076211;28;20032;-87
2022/05/27 03:41:13;;;;;;;1.95;1.70;;;14.00;97.60;;;;;;5081072;28;20043;-84
2022/05/27 03:43:39;;;;;;;2.95;1.63;;;14.00;97.70;;;;;;5088266;28;20405;-87
2022/05/27 03:46:05;;;;;;;2.45;1.92;;;14.00;97.80;;;;;;5090930;28;20349;-84
2022/05/27 03:48:33;;;;;;;2.25;1.65;;;14.00;98.00;;;;;;5087212;28;20050;-84
2022/05/27 03:51:19;;;;;;;3.08;1.58;;;14.00;98.20;;;;;;5092543;28;20047;-85
2022/05/27 03:56:31;;;;;;;3.17;1.55;;;14.00;98.30;;;;;;5090357;28;20075;-85
2022/05/27 03:58:57;;;;;;;3.38;1.83;;;14.00;98.50;;;;;;5083075;28;20497;-87
2022/05/27 04:01:25;;;;;;;2.83;1.50;;;14.00;98.60;;;;;;5085669;28;20019;-84
2022/05/27 04:03:51;;;;;;;3.15;1.90;;;14.00;98.70;;;;;;5090966;28;20240;-84
2022/05/27 04:06:17;;;;;;;4.07;1.80;;;14.00;98.70;;;;;;5095039;28;20056;-84
2022/05/27 04:08:43;;;;;;;3.30;1.75;;;14.00;98.90;;;;;;5082211;28;20124;-86
2022/05/27 04:11:08;;;;;;;1.77;1.67;;;14.00;99.30;;;;;;5085776;28;20040;-84
2022/05/27 04:13:34;;;;;;;3.65;1.90;;;14.00;99.20;;;;;;5099070;28;20074;-86
2022/05/27 04:16:00;;;;;;;3.67;1.63;;;14.10;99.30;;;;;;5092251;28;20070;-84
2022/05/27 04:18:26;;;;;;;2.67;1.85;;;14.10;99.30;;;;;;5091784;28;20024;-85
2022/05/27 04:20:51;;;;;;;1.55;1.45;;;14.10;99.50;;;;;;5085620;28;20025;-84
2022/05/27 04:23:17;;;;;;;4.40;2.20;;;14.10;99.50;;;;;;5107169;28;20024;-84
2022/05/27 04:25:47;;;;;;;3.42;1.95;;;14.10;99.60;;;;;;5088274;28;20028;-84
2022/05/27 04:28:12;;;;;;;4.80;1.83;;;14.10;99.70;;;;;;5097489;28;20012;-84
2022/05/27 04:30:38;;;;;;;3.55;1.67;;;14.20;99.70;;;;;;5092459;28;20028;-85
2022/05/27 04:33:04;;;;;;;2.20;1.70;;;14.20;99.80;;;;;;5092380;28;20040;-86
2022/05/27 04:35:30;;;;;;;5.53;1.75;;;14.30;99.80;;;;;;5083893;28;20059;-84
2022/05/27 04:37:56;;;;;;;3.72;2.00;;;14.30;99.80;;;;;;5077796;28;20108;-84
2022/05/27 04:40:22;;;;;;;4.53;1.77;;;14.30;99.80;;;;;;5075609;28;20086;-86
2022/05/27 04:42:48;;;;;;;2.22;1.60;;;14.40;99.80;;;;;;5168700;22;20186;-90
2022/05/27 04:45:14;;;;;;;5.13;2.35;;;14.50;99.90;;;;;;5052883;28;20070;-89
2022/05/27 04:47:40;;;;;;;2.85;2.05;;;14.50;99.90;;;;;;5060584;28;20396;-89
2022/05/27 04:50:08;;;;;;;5.38;2.45;;;14.60;99.90;;;;;;5046883;28;20116;-90
2022/05/27 04:52:34;;;;;;;2.95;1.60;;;14.70;99.90;;;;;;5060367;28;20056;-90
2022/05/27 04:55:02;;;;;;;3.45;1.92;;;14.70;99.80;;;;;;5052800;28;20421;-90
2022/05/27 04:57:32;;;;;;;4.65;2.20;;;14.90;99.80;;;;;;5055248;28;20590;-91
2022/05/27 04:59:59;;;;;;;4.75;2.38;;;14.90;99.80;;;;;;5087878;28;20009;-88
2022/05/27 05:02:25;;;;;;;3.00;2.38;;;15.00;99.80;;;;;;5103790;22;20024;-88
2022/05/27 05:04:52;;;;;;;4.03;2.08;;;15.00;99.70;;;;;;5085814;28;20107;-88
2022/05/27 05:07:21;;;;;;;4.75;2.40;;;15.20;99.80;;;;;;5070005;28;20024;-89
2022/05/27 05:09:47;;;;;;;3.80;2.58;;;15.30;99.80;;;;;;5067711;28;20613;-88
2022/05/27 05:12:13;;;;;;;4.15;2.70;;;15.40;99.60;;;;;;5096041;28;20039;-87
2022/05/27 05:14:40;;;;;;;4.65;2.53;;;15.50;99.50;;;;;;5088196;28;20028;-86
2022/05/27 05:17:06;;;;;;;6.88;3.65;;;15.60;99.50;;;;;;5099848;28;20394;-89
2022/05/27 05:19:32;;;;;;;3.42;2.55;;;15.70;99.40;;;;;;5064655;28;20486;-88
2022/05/27 05:21:57;;;;;;;10.32;3.10;;;15.70;99.50;;;;;;5066664;28;20059;-88
2022/05/27 05:24:23;;;;;;;4.22;2.75;;;15.70;99.50;;;;;;5075480;28;20087;-89
2022/05/27 05:26:49;;;;;;;4.30;2.95;;;15.70;99.40;;;;;;5087873;28;20020;-88
2022/05/27 05:29:15;;;;;;;5.82;2.70;;;15.70;99.40;;;;;;5069550;28;20024;-88
2022/05/27 05:31:41;;;;;;;6.43;3.10;;;15.70;99.40;;;;;;5092036;28;20095;-88
2022/05/27 05:34:07;;;;;;;4.22;2.65;;;15.70;99.50;;;;;;5075646;28;20231;-89
2022/05/27 05:36:34;;;;;;;7.75;2.90;;;15.70;99.60;;;;;;5066867;28;20029;-89
2022/05/27 05:39:01;;;;;;;3.83;2.47;;;15.60;99.60;;;;;;5094630;28;20024;-88
2022/05/27 05:41:36;;;;;;;6.40;3.00;;;15.60;99.80;;;;;;5075980;28;20039;-89
2022/05/27 05:44:03;;;;;;;3.92;2.53;;;15.60;99.90;;;;;;5082719;28;20035;-91
2022/05/27 05:46:32;;;;;;;3.97;2.70;;;15.60;99.80;;;;;;5072997;28;20060;-91
2022/05/27 05:48:58;;;;;;;3.65;2.83;;;15.60;99.80;;;;;;5072092;28;20028;-91
2022/05/27 05:51:24;;;;;;;3.55;2.75;;;15.60;99.80;;;;;;5076993;28;20419;-92
2022/05/27 05:53:50;;;;;;;4.13;3.20;;;15.60;99.80;;;;;;5077901;28;20063;-91
2022/05/27 05:56:25;;;;;;;4.57;2.88;;;15.50;99.80;;;;;;5071982;28;20028;-93
2022/05/27 05:58:51;;;;;;;6.30;3.40;;;15.60;99.90;;;;;;5075909;28;20502;-91
2022/05/27 06:01:18;;;;;;;4.40;2.90;;;15.50;99.90;;;;;;5071177;28;20044;-91
2022/05/27 06:03:43;;;;;;;4.00;3.35;;;15.50;99.90;;;;;;5080836;28;20027;-90
2022/05/27 06:06:09;;;;;;;6.13;3.00;;;15.50;99.90;;;;;;5072382;28;20096;-90
2022/05/27 06:08:36;;;;;;;3.95;3.10;;;15.40;99.90;;;;;;5089849;28;20036;-92
2022/05/27 06:11:02;;;;;;;6.03;3.60;;;15.40;99.90;;;;;;5089188;28;20019;-90
2022/05/27 06:13:28;;;;;;;5.47;3.30;;;15.40;99.90;;;;;;5095705;28;20070;-90
2022/05/27 06:15:54;;;;;;;5.88;3.10;;;15.30;99.90;;;;;;5091402;28;20027;-91
2022/05/27 06:18:19;;;;;;;4.05;2.80;;;15.30;99.90;;;;;;5094616;28;20020;-87
2022/05/27 06:20:45;;;;;;;8.82;3.22;;;15.30;99.90;;;;;;5094225;27;20038;-88
2022/05/27 06:23:11;;;;;;;5.53;2.90;;;15.20;99.90;;;;;;5094815;28;20108;-89
2022/05/27 06:25:38;;;;;;;5.22;3.38;;;15.20;99.90;;;;;;5081202;28;20028;-91
2022/05/27 06:36:20;;;;;;;8.25;3.38;;;15.20;99.90;;;;;;5050838;28;20132;-91
2022/05/27 06:38:49;;;;;;;6.70;4.35;;;15.20;99.90;;;;;;5080809;28;20020;-92
2022/05/27 06:41:15;;;;;;;8.32;5.22;;;15.10;99.90;;;;;;5089683;28;20088;-90
2022/05/27 06:43:41;;;;;;;5.97;4.78;;;15.10;99.90;;;;;;5093340;28;20044;-88
2022/05/27 06:48:38;;;;;;;;;;;15.00;99.90;;;;;;5066269;28;20095;-85
2022/05/27 06:51:06;;;;;;;6.75;5.45;;;15.00;99.90;;;;;;5041275;28;19972;-90
2022/05/27 06:53:31;;;;;;;8.35;5.25;;;15.00;99.90;;;;;;5032504;28;20057;-89
2022/05/27 06:55:58;;;;;;;7.80;6.25;;;15.00;99.90;;;;;;5017042;28;20072;-90
2022/05/27 06:58:23;;;;;;;6.63;5.43;;;15.00;99.90;;;;;;5014954;28;20026;-89
2022/05/27 07:00:49;;;;;;;7.15;5.30;;;15.00;99.90;;;;;;5029458;28;20096;-88
2022/05/27 07:03:14;;;;;;;7.40;5.03;;;15.00;99.90;;;;;;5011203;28;20112;-89
2022/05/27 07:05:40;;;;;;;6.32;5.53;;;15.00;99.90;;;;;;5022054;28;20013;-88
2022/05/27 07:08:07;;;;;;;6.55;4.93;;;15.00;99.90;;;;;;5033167;28;20030;-91
2022/05/27 07:10:33;;;;;;;22.95;16.65;;;15.10;99.90;;;;;;5035860;28;20063;-86
2022/05/27 07:13:02;;;;;;;6.15;4.82;;;15.10;99.90;;;;;;5014059;28;20049;-90
2022/05/27 07:15:29;;;;;;;6.22;5.22;;;15.10;99.90;;;;;;5007119;28;20034;-88
2022/05/27 07:17:56;;;;;;;5.55;4.75;;;15.10;99.90;;;;;;5016039;28;20029;-88
2022/05/27 07:20:23;;;;;;;8.05;5.90;;;15.00;99.90;;;;;;5032321;28;20040;-90
2022/05/27 07:22:51;;;;;;;7.35;5.22;;;15.00;99.90;;;;;;5019725;28;20505;-90
2022/05/27 07:25:25;;;;;;;7.72;6.10;;;15.00;99.90;;;;;;5019282;28;20033;-91
2022/05/27 07:28:01;;;;;;;5.40;4.90;;;14.90;99.90;;;;;;5042317;28;20029;-89
2022/05/27 07:30:44;;;;;;;7.40;5.50;;;14.90;99.90;;;;;;5051630;28;20045;-89
2022/05/27 07:33:16;;;;;;;9.02;5.20;;;14.90;99.90;;;;;;5041187;28;20029;-89
2022/05/27 07:36:10;;;;;;;6.50;5.30;;;14.90;99.90;;;;;;5039466;28;20013;-89
2022/05/27 07:38:47;;;;;;;6.72;4.80;;;14.90;99.90;;;;;;5034474;28;20021;-91
2022/05/27 07:41:27;;;;;;;8.60;5.22;;;14.90;99.90;;;;;;5039985;28;20052;-90
2022/05/27 07:43:59;;;;;;;14.65;11.00;;;14.90;99.90;;;;;;5040722;28;20029;-91
2022/05/27 07:46:31;;;;;;;7.53;5.15;;;14.90;99.90;;;;;;5040431;28;20033;-90
2022/05/27 07:49:05;;;;;;;5.72;5.10;;;14.90;99.90;;;;;;5040880;28;20037;-91
2022/05/27 07:51:32;;;;;;;7.85;4.85;;;15.00;99.90;;;;;;5039822;28;20041;-90
2022/05/27 07:54:04;;;;;;;8.05;5.47;;;15.00;99.90;;;;;;5040574;28;20018;-90
2022/05/27 07:56:32;;;;;;;8.13;5.45;;;15.00;99.90;;;;;;5017367;28;20036;-92
2022/05/27 07:58:58;;;;;;;8.05;6.22;;;15.00;99.90;;;;;;5016848;28;20450;-93
2022/05/27 08:01:29;;;;;;;7.72;5.57;;;15.10;99.90;;;;;;5016528;28;20028;-93
2022/05/27 08:04:00;;;;;;;6.80;5.57;;;15.10;99.90;;;;;;5018261;28;20017;-91
2022/05/27 08:14:09;;;;;;;6.53;5.93;;;15.10;99.90;;;;;;5022160;28;20425;-93
2022/05/27 08:23:09;;;;;;;7.90;5.95;;;15.10;99.90;;;;;;4998846;28;20090;-91
2022/05/27 08:25:46;;;;;;;7.18;5.55;;;15.20;99.90;;;;;;5016601;28;20018;-92
2022/05/27 08:28:21;;;;;;;7.93;5.82;;;15.20;99.90;;;;;;5015893;28;20247;-92
2022/05/27 08:31:18;;;;;;;5.75;4.88;;;15.50;99.90;;;;;;5018495;28;20021;-91
2022/05/27 08:39:29;;;;;;;5.90;4.50;;;16.80;99.20;;;;;;5028210;28;20048;-91
2022/05/27 08:42:17;;;;;;;5.68;4.38;;;17.20;98.70;;;;;;5014411;28;20037;-91
2022/05/27 08:45:37;;;;;;;4.82;3.95;;;17.40;98.10;;;;;;5016332;28;20033;-92
2022/05/27 08:48:39;;;;;;;6.50;4.10;;;17.40;97.30;;;;;;5014155;28;20026;-91
2022/05/27 08:51:45;;;;;;;6.93;3.28;;;17.60;96.90;;;;;;5033029;28;20029;-92
2022/05/27 08:54:44;;;;;;;4.55;3.00;;;17.90;96.90;;;;;;5014832;28;20549;-92
2022/05/27 09:00:37;;;;;;;3.47;2.53;;;18.20;96.10;;;;;;5032281;28;20021;-91
2022/05/27 09:03:39;;;;;;;5.20;2.53;;;18.20;96.20;;;;;;4951625;28;20124;-91
2022/05/27 09:06:12;;;;;;;3.05;2.53;;;18.10;96.30;;;;;;4999246;28;20033;-92
2022/05/27 09:08:46;;;;;;;3.08;2.30;;;18.10;96.10;;;;;;5019669;28;20113;-91
2022/05/27 09:11:42;;;;;;;4.80;2.58;;;18.10;95.70;;;;;;5016023;28;20026;-91
2022/05/27 09:14:26;;;;;;;2.63;2.40;;;18.10;95.50;;;;;;5010396;28;20045;-91
2022/05/27 09:16:59;;;;;;;3.20;2.50;;;18.10;95.30;;;;;;5004737;28;20037;-91
2022/05/27 09:19:41;;;;;;;2.90;2.60;;;18.10;94.80;;;;;;5015824;28;20033;-91
2022/05/27 09:22:34;;;;;;;5.30;3.10;;;18.10;94.70;;;;;;5017536;28;20109;-91
2022/05/27 09:25:25;;;;;;;5.10;3.13;;;18.10;94.60;;;;;;5015555;28;20022;-91
2022/05/27 09:28:05;;;;;;;4.50;2.47;;;18.10;94.20;;;;;;4932156;28;20083;-92
2022/05/27 09:30:40;;;;;;;4.68;2.30;;;18.10;93.90;;;;;;5013730;28;20025;-92
2022/05/27 09:33:16;;;;;;;2.72;2.53;;;18.10;94.00;;;;;;5021493;28;20025;-92
2022/05/27 09:35:52;;;;;;;3.28;2.38;;;18.00;93.90;;;;;;5015683;28;20038;-92
2022/05/27 09:38:30;;;;;;;2.15;1.95;;;17.90;94.00;;;;;;5018847;28;20025;-91
2022/05/27 09:41:28;;;;;;;2.10;1.80;;;17.80;93.80;;;;;;5017180;28;20149;-90
2022/05/27 09:44:09;;;;;;;2.53;1.83;;;17.70;93.90;;;;;;5008994;28;20028;-91
2022/05/27 09:46:44;;;;;;;1.75;1.60;;;17.70;93.80;;;;;;5015570;28;20100;-90
2022/05/27 09:49:10;;;;;;;2.78;1.60;;;17.60;93.90;;;;;;5014902;28;20328;-90
2022/05/27 09:51:44;;;;;;;3.17;2.08;;;17.50;93.90;;;;;;5015353;28;20106;-91
2022/05/27 09:54:38;;;;;;;2.75;2.00;;;17.50;94.00;;;;;;5014815;28;20029;-91
2022/05/27 09:57:10;;;;;;;2.90;2.03;;;17.30;94.10;;;;;;5015808;28;20023;-91
2022/05/27 09:59:54;;;;;;;4.22;1.95;;;17.30;94.10;;;;;;5015517;28;20049;-91
2022/05/27 10:02:40;;;;;;;5.15;1.88;;;17.10;94.20;;;;;;4996157;28;20494;-91
2022/05/27 10:05:28;;;;;;;2.78;1.77;;;17.10;94.50;;;;;;4995169;28;20022;-91
2022/05/27 10:08:00;;;;;;;3.47;1.80;;;17.00;94.60;;;;;;4995573;28;20025;-90
2022/05/27 10:10:38;;;;;;;3.53;2.05;;;17.00;94.60;;;;;;5007175;28;20139;-90
2022/05/27 10:13:19;;;;;;;2.67;1.85;;;17.10;94.60;;;;;;5021280;28;20091;-90
2022/05/27 10:15:53;;;;;;;3.95;1.77;;;17.00;94.70;;;;;;5031054;28;20363;-92
2022/05/27 10:18:29;;;;;;;3.35;1.73;;;17.00;94.70;;;;;;5014782;28;20093;-91
2022/05/27 10:21:11;;;;;;;2.58;1.90;;;17.00;94.80;;;;;;5028394;28;20028;-91
2022/05/27 10:23:50;;;;;;;4.80;2.35;;;17.00;94.90;;;;;;5036009;28;20025;-89
2022/05/27 10:27:07;;;;;;;4.38;2.65;;;17.00;94.70;;;;;;5035915;28;20049;-90
2022/05/27 10:29:37;;;;;;;2.65;2.00;;;16.90;94.80;;;;;;5001849;28;20136;-91
2022/05/27 10:32:12;;;;;;;2.47;2.20;;;16.90;94.80;;;;;;5016521;28;20479;-90
2022/05/27 10:34:47;;;;;;;3.58;2.60;;;16.80;94.70;;;;;;5034287;28;20017;-89
2022/05/27 10:37:51;;;;;;;3.50;2.47;;;16.70;94.80;;;;;;5030864;28;20018;-89
2022/05/27 10:41:08;;;;;;;3.38;2.95;;;16.70;95.00;;;;;;4991845;28;20029;-90
2022/05/27 10:43:37;;;;;;;3.72;2.42;;;16.60;95.00;;;;;;5023129;23;20103;-85
2022/05/27 10:46:09;;;;;;;3.97;2.47;;;16.60;95.30;;;;;;5067235;28;20031;-86
2022/05/27 10:49:13;;;;;;;;;;;16.70;95.50;;;;;;5067533;28;20025;-84
2022/05/27 10:52:10;;;;;;;5.65;2.25;;;16.70;95.20;;;;;;4959561;28;20004;-86
2022/05/27 10:54:57;;;;;;;3.72;1.80;;;16.80;95.10;;;;;;4959221;28;20057;-85
2022/05/27 11:04:05;;;;;;;2.33;2.00;;;16.80;95.10;;;;;;5076611;28;20531;-86
2022/05/27 11:06:59;;;;;;;4.50;2.08;;;16.80;95.10;;;;;;5056607;28;20107;-84
2022/05/27 11:09:51;;;;;;;2.40;1.85;;;16.80;95.10;;;;;;5056241;28;20024;-84
2022/05/27 11:15:10;;;;;;;5.53;2.20;;;16.80;95.20;;;;;;5058030;28;20021;-84
2022/05/27 11:15:45;;;;;;;1.90;1.80;;;16.80;95.10;;;;;;5076035;28;20020;-85
2022/05/27 11:18:38;;;;;;;4.28;1.98;;;16.70;95.20;;;;;;5058370;28;20020;-83
2022/05/27 11:21:32;;;;;;;1.88;1.50;;;16.70;95.30;;;;;;5057822;28;20025;-84
2022/05/27 11:24:03;;;;;;;2.65;1.70;;;16.80;95.40;;;;;;5057874;28;20032;-85
2022/05/27 11:26:50;;;;;;;3.15;1.75;;;16.80;95.40;;;;;;5075872;28;20032;-84
2022/05/27 11:29:39;;;;;;;4.10;3.08;;;16.90;95.40;;;;;;5075958;28;20031;-84
2022/05/27 11:32:36;;;;;;;2.88;1.92;;;16.90;95.50;;;;;;5049489;28;20683;-86
2022/05/27 11:35:13;;;;;;;2.00;1.80;;;16.90;95.50;;;;;;5054319;28;20025;-85
2022/05/27 11:37:39;;;;;;;3.53;1.77;;;16.90;95.50;;;;;;5037936;28;20032;-85
2022/05/27 11:40:20;;;;;;;1.80;1.70;;;16.90;95.50;;;;;;5070561;28;20659;-85
2022/05/27 11:43:18;;;;;;;2.58;1.60;;;16.90;95.60;;;;;;5057467;28;20028;-85
2022/05/27 11:46:14;;;;;;;1.40;1.30;;;17.00;95.50;;;;;;5057610;28;20040;-83
2022/05/27 11:48:55;;;;;;;1.10;1.10;;;17.10;95.50;;;;;;5058449;28;20428;-84
2022/05/27 11:51:35;;;;;;;1.30;1.15;;;17.20;95.50;;;;;;5058381;28;20028;-84
2022/05/27 11:54:42;;;;;;;1.88;1.30;;;17.20;95.40;;;;;;5058285;28;20024;-85
2022/05/27 11:57:19;;;;;;;2.10;1.25;;;17.30;95.20;;;;;;5058604;28;20115;-85
2022/05/27 12:00:03;;;;;;;1.98;1.88;;;17.40;95.20;;;;;;5058025;28;20097;-85
2022/05/27 12:03:02;;;;;;;3.47;1.40;;;17.40;95.00;;;;;;5058534;28;20381;-86
2022/05/27 12:05:36;;;;;;;4.00;1.48;;;17.50;95.00;;;;;;5058219;28;20462;-84
2022/05/27 12:08:27;;;;;;;2.05;1.50;;;17.60;94.90;;;;;;5057942;28;20025;-85
2022/05/27 12:11:11;;;;;;;3.47;1.67;;;17.60;94.80;;;;;;5057991;28;20024;-85
2022/05/27 12:13:52;;;;;;;1.90;1.40;;;17.60;94.80;;;;;;5058211;28;20379;-86
2022/05/27 12:16:23;;;;;;;2.22;1.40;;;17.60;94.70;;;;;;5039764;28;20017;-84
2022/05/27 12:18:56;;;;;;;1.65;1.55;;;17.70;94.50;;;;;;5038637;28;20039;-85
2022/05/27 12:21:25;;;;;;;2.40;1.58;;;17.80;94.50;;;;;;5038689;28;20028;-86
2022/05/27 12:24:01;;;;;;;1.60;1.50;;;17.80;94.50;;;;;;5038753;28;20033;-85
2022/05/27 12:26:33;;;;;;;2.13;1.50;;;17.80;94.50;;;;;;5057063;28;20025;-84
2022/05/27 12:29:03;;;;;;;1.45;1.30;;;17.90;94.60;;;;;;5058043;28;20029;-85
2022/05/27 12:31:31;;;;;;;1.40;1.30;;;18.00;94.60;;;;;;5057577;28;20029;-85
2022/05/27 12:33:57;;;;;;;3.17;1.50;;;18.10;94.30;;;;;;5058108;28;20020;-84
2022/05/27 12:36:27;;;;;;;2.78;1.67;;;18.20;94.20;;;;;;5058189;28;20021;-85
2022/05/27 12:38:55;;;;;;;3.25;1.58;;;18.20;94.30;;;;;;5075703;28;20020;-85
2022/05/27 12:41:39;;;;;;;2.58;1.25;;;18.20;94.20;;;;;;5057594;28;20028;-85
2022/05/27 12:44:28;;;;;;;1.35;1.25;;;18.20;94.20;;;;;;5042088;28;20098;-85
2022/05/27 12:46:57;;;;;;;1.63;1.23;;;18.10;94.00;;;;;;5038362;28;20021;-85
2022/05/27 12:49:41;;;;;;;3.13;1.25;;;18.10;94.10;;;;;;5037650;28;20078;-86
2022/05/27 12:52:43;;;;;;;2.17;1.30;;;18.00;94.00;;;;;;5038486;28;20459;-84
2022/05/27 12:55:33;;;;;;;5.97;4.03;;;18.00;94.00;;;;;;5037926;28;20035;-86
2022/05/27 13:01:00;;;;;;;2.03;1.30;;;17.90;94.00;;;;;;5006246;28;20046;-87
2022/05/27 13:03:35;;;;;;;2.42;1.17;;;17.80;94.00;;;;;;5064118;28;20032;-85
2022/05/27 13:06:15;;;;;;;10.18;5.78;;;17.80;94.20;;;;;;5066320;28;20029;-86
2022/05/27 13:08:53;;;;;;;2.35;1.20;;;17.90;94.40;;;;;;5064395;28;20036;-87
2022/05/27 13:11:21;;;;;;;2.22;1.40;;;17.90;94.40;;;;;;5063626;28;20027;-85
2022/05/27 13:14:04;;;;;;;1.83;1.50;;;18.00;94.30;;;;;;5061039;28;20035;-85
2022/05/27 13:16:41;;;;;;;1.55;1.45;;;18.00;94.30;;;;;;5061628;28;20021;-86
2022/05/27 13:19:19;;;;;;;1.92;1.65;;;18.00;94.40;;;;;;5037308;28;20033;-85
2022/05/27 13:21:55;;;;;;;1.83;1.20;;;18.00;94.60;;;;;;5037030;28;20036;-84
2022/05/27 13:24:20;;;;;;;3.70;1.55;;;18.10;94.70;;;;;;5062602;28;20470;-84
2022/05/27 13:26:59;;;;;;;3.30;1.67;;;18.10;94.80;;;;;;5060790;28;20027;-86
2022/05/27 13:29:39;;;;;;;2.45;1.52;;;18.10;94.90;;;;;;5075208;28;20482;-84
2022/05/27 13:32:11;;;;;;;2.47;1.48;;;18.20;94.90;;;;;;5078215;28;20001;-87
2022/05/27 13:34:51;;;;;;;1.77;1.52;;;18.20;94.80;;;;;;5063539;28;20425;-85
2022/05/27 13:37:39;;;;;;;1.60;1.50;;;18.10;94.60;;;;;;5059381;28;20545;-85
2022/05/27 13:40:12;;;;;;;2.15;1.30;;;18.00;94.70;;;;;;5030954;28;20124;-87
2022/05/27 13:42:49;;;;;;;1.50;1.40;;;17.90;95.10;;;;;;5054805;28;20021;-85
2022/05/27 13:45:22;;;;;;;1.27;1.20;;;17.90;95.30;;;;;;5081236;28;20029;-86
2022/05/27 13:48:03;;;;;;;1.85;1.55;;;18.00;95.30;;;;;;5060082;28;20051;-86
2022/05/27 13:50:44;;;;;;;1.65;1.40;;;18.10;95.20;;;;;;5061068;28;20115;-85
2022/05/27 13:53:28;;;;;;;3.35;1.55;;;18.10;94.80;;;;;;5060553;28;20097;-86
2022/05/27 13:56:10;;;;;;;1.48;1.38;;;18.10;94.60;;;;;;5060455;28;20050;-86
2022/05/27 13:58:46;;;;;;;5.25;1.27;;;18.20;94.70;;;;;;5056033;28;20032;-86
2022/05/27 14:01:12;;;;;;;1.85;1.33;;;18.20;94.50;;;;;;5055601;28;20485;-86
2022/05/27 14:03:44;;;;;;;3.38;2.13;;;18.20;94.40;;;;;;5055397;28;20078;-86
2022/05/27 14:06:11;;;;;;;2.17;1.73;;;18.20;94.20;;;;;;5055612;28;20033;-86
2022/05/27 14:08:43;;;;;;;3.60;1.50;;;18.10;94.20;;;;;;5047135;28;20036;-86
2022/05/27 14:11:19;;;;;;;;;;;18.10;94.40;;;;;;5049392;28;20083;-85
2022/05/27 14:13:54;;;;;;;3.30;1.60;;;18.00;94.40;;;;;;5062462;28;20002;-86
2022/05/27 14:16:30;;;;;;;3.58;2.00;;;18.10;94.90;;;;;;5058824;28;20025;-86
2022/05/27 14:19:06;;;;;;;1.90;1.58;;;18.10;94.90;;;;;;5057170;28;20066;-86